sensor_id;sensor_type;location;lat;lon;timestamp;temperature;humidity
34837;DHT22;21053;50.848;4.652;2022-12-07T00:01:25;7.00;99.90
34837;DHT22;21053;50.848;4.652;2022-12-07T00:03:54;6.90;99.90
34837;DHT22;21053;50.848;4.652;2022-12-07T00:06:22;7.00;99.90
34837;DHT22;21053;50.848;4.652;2022-12-07T00:08:48;7.10;99.90
34837;DHT22;21053;50.848;4.652;2022-12-07T00:11:20;7.00;99.90
34837;DHT22;21053;50.848;4.652;2022-12-07T00:13:50;7.00;99.90
34837;DHT22;21053;50.848;4.652;2022-12-07T00:16:18;6.90;99.90
34837;DHT22;21053;50.848;4.652;2022-12-07T00:18:44;6.80;99.90
34837;DHT22;21053;50.848;4.652;2022-12-07T00:21:13;6.70;99.90
34837;DHT22;21053;50.848;4.652;2022-12-07T00:23:40;6.60;99.90
34837;DHT22;21053;50.848;4.652;2022-12-07T00:26:08;6.60;99.90
34837;DHT22;21053;50.848;4.652;2022-12-07T00:28:34;6.50;99.90
34837;DHT22;21053;50.848;4.652;2022-12-07T00:31:04;6.50;99.90
34837;DHT22;21053;50.848;4.652;2022-12-07T00:33:33;6.50;99.90
34837;DHT22;21053;50.848;4.652;2022-12-07T00:36:00;6.50;99.90
34837;DHT22;21053;50.848;4.652;2022-12-07T00:38:31;6.50;99.90
34837;DHT22;21053;50.848;4.652;2022-12-07T00:40:59;6.60;99.90
34837;DHT22;21053;50.848;4.652;2022-12-07T00:43:25;6.50;99.90
34837;DHT22;21053;50.848;4.652;2022-12-07T00:45:52;7.00;99.90
34837;DHT22;21053;50.848;4.652;2022-12-07T00:48:18;6.40;99.90
34837;DHT22;21053;50.848;4.652;2022-12-07T00:50:43;6.40;99.90
34837;DHT22;21053;50.848;4.652;2022-12-07T00:53:09;6.50;99.90
34837;DHT22;21053;50.848;4.652;2022-12-07T00:55:38;6.30;99.90
34837;DHT22;21053;50.848;4.652;2022-12-07T00:58:04;6.20;99.90
34837;DHT22;21053;50.848;4.652;2022-12-07T01:00:30;6.30;99.90
34837;DHT22;21053;50.848;4.652;2022-12-07T01:02:56;6.20;99.90
34837;DHT22;21053;50.848;4.652;2022-12-07T01:05:21;6.10;99.90
34837;DHT22;21053;50.848;4.652;2022-12-07T01:07:47;6.00;99.90
34837;DHT22;21053;50.848;4.652;2022-12-07T01:10:13;6.10;99.90
34837;DHT22;21053;50.848;4.652;2022-12-07T01:12:40;6.10;99.90
34837;DHT22;21053;50.848;4.652;2022-12-07T01:15:06;6.00;99.90
34837;DHT22;21053;50.848;4.652;2022-12-07T01:17:33;6.00;99.90
34837;DHT22;21053;50.848;4.652;2022-12-07T01:20:00;6.00;99.90
34837;DHT22;21053;50.848;4.652;2022-12-07T01:22:26;5.90;99.90
34837;DHT22;21053;50.848;4.652;2022-12-07T01:24:54;5.80;99.90
34837;DHT22;21053;50.848;4.652;2022-12-07T01:27:20;5.80;99.90
34837;DHT22;21053;50.848;4.652;2022-12-07T01:29:48;5.70;99.90
34837;DHT22;21053;50.848;4.652;2022-12-07T01:32:16;5.60;99.90
34837;DHT22;21053;50.848;4.652;2022-12-07T01:34:42;5.70;99.90
34837;DHT22;21053;50.848;4.652;2022-12-07T01:37:08;5.40;99.90
34837;DHT22;21053;50.848;4.652;2022-12-07T01:39:35;5.30;99.90
34837;DHT22;21053;50.848;4.652;2022-12-07T01:42:01;6.30;99.90
34837;DHT22;21053;50.848;4.652;2022-12-07T01:44:28;5.30;99.90
34837;DHT22;21053;50.848;4.652;2022-12-07T01:47:06;5.30;99.90
34837;DHT22;21053;50.848;4.652;2022-12-07T01:54:40;5.20;99.90
34837;DHT22;21053;50.848;4.652;2022-12-07T01:57:09;5.10;99.90
34837;DHT22;21053;50.848;4.652;2022-12-07T01:59:36;5.00;99.90
34837;DHT22;21053;50.848;4.652;2022-12-07T02:02:04;5.00;99.90
34837;DHT22;21053;50.848;4.652;2022-12-07T02:04:33;5.10;99.90
34837;DHT22;21053;50.848;4.652;2022-12-07T02:07:00;5.30;99.90
34837;DHT22;21053;50.848;4.652;2022-12-07T02:09:27;5.40;99.90
34837;DHT22;21053;50.848;4.652;2022-12-07T02:11:53;5.30;99.90
34837;DHT22;21053;50.848;4.652;2022-12-07T02:14:20;5.30;99.90
34837;DHT22;21053;50.848;4.652;2022-12-07T02:30:16;5.30;99.90
34837;DHT22;21053;50.848;4.652;2022-12-07T02:35:15;5.40;99.90
34837;DHT22;21053;50.848;4.652;2022-12-07T02:37:50;5.40;99.90
34837;DHT22;21053;50.848;4.652;2022-12-07T02:40:27;5.30;99.90
34837;DHT22;21053;50.848;4.652;2022-12-07T02:43:10;5.30;99.90
34837;DHT22;21053;50.848;4.652;2022-12-07T02:45:39;5.20;99.90
34837;DHT22;21053;50.848;4.652;2022-12-07T02:48:07;6.20;99.90
34837;DHT22;21053;50.848;4.652;2022-12-07T02:50:33;5.30;99.90
34837;DHT22;21053;50.848;4.652;2022-12-07T02:52:59;5.30;99.90
34837;DHT22;21053;50.848;4.652;2022-12-07T02:55:29;5.40;99.90
34837;DHT22;21053;50.848;4.652;2022-12-07T02:58:14;5.50;99.90
34837;DHT22;21053;50.848;4.652;2022-12-07T03:01:09;5.50;99.90
34837;DHT22;21053;50.848;4.652;2022-12-07T03:03:47;5.50;99.90
34837;DHT22;21053;50.848;4.652;2022-12-07T03:06:28;5.50;99.90
34837;DHT22;21053;50.848;4.652;2022-12-07T03:09:21;5.50;99.90
34837;DHT22;21053;50.848;4.652;2022-12-07T03:12:10;5.50;99.90
34837;DHT22;21053;50.848;4.652;2022-12-07T03:15:12;5.40;99.90
34837;DHT22;21053;50.848;4.652;2022-12-07T03:17:42;5.40;99.90
34837;DHT22;21053;50.848;4.652;2022-12-07T03:20:14;5.30;99.90
34837;DHT22;21053;50.848;4.652;2022-12-07T03:22:42;5.10;99.90
34837;DHT22;21053;50.848;4.652;2022-12-07T03:25:11;5.10;99.90
34837;DHT22;21053;50.848;4.652;2022-12-07T03:27:53;5.00;99.90
34837;DHT22;21053;50.848;4.652;2022-12-07T03:30:24;5.00;99.90
34837;DHT22;21053;50.848;4.652;2022-12-07T03:33:22;5.00;99.90
34837;DHT22;21053;50.848;4.652;2022-12-07T03:36:01;5.00;99.90
34837;DHT22;21053;50.848;4.652;2022-12-07T03:38:40;5.00;99.90
34837;DHT22;21053;50.848;4.652;2022-12-07T03:41:22;5.10;99.90
34837;DHT22;21053;50.848;4.652;2022-12-07T03:43:51;5.20;99.90
34837;DHT22;21053;50.848;4.652;2022-12-07T03:46:50;5.30;99.90
34837;DHT22;21053;50.848;4.652;2022-12-07T03:49:25;5.30;99.90
34837;DHT22;21053;50.848;4.652;2022-12-07T03:51:57;5.20;99.90
34837;DHT22;21053;50.848;4.652;2022-12-07T03:54:36;5.10;99.90
34837;DHT22;21053;50.848;4.652;2022-12-07T03:57:04;5.20;99.90
34837;DHT22;21053;50.848;4.652;2022-12-07T03:59:31;5.10;99.90
34837;DHT22;21053;50.848;4.652;2022-12-07T04:02:02;5.10;99.90
34837;DHT22;21053;50.848;4.652;2022-12-07T04:04:28;5.30;99.90
34837;DHT22;21053;50.848;4.652;2022-12-07T04:06:55;5.30;99.90
34837;DHT22;21053;50.848;4.652;2022-12-07T04:09:22;5.10;99.90
34837;DHT22;21053;50.848;4.652;2022-12-07T04:11:48;5.20;99.90
34837;DHT22;21053;50.848;4.652;2022-12-07T04:14:14;5.10;99.90
34837;DHT22;21053;50.848;4.652;2022-12-07T04:16:51;5.00;99.90
34837;DHT22;21053;50.848;4.652;2022-12-07T04:19:18;5.10;99.90
34837;DHT22;21053;50.848;4.652;2022-12-07T04:21:44;5.20;99.90
34837;DHT22;21053;50.848;4.652;2022-12-07T04:24:12;5.10;99.90
34837;DHT22;21053;50.848;4.652;2022-12-07T04:26:38;5.10;99.90
34837;DHT22;21053;50.848;4.652;2022-12-07T04:29:04;4.90;99.90
34837;DHT22;21053;50.848;4.652;2022-12-07T04:31:31;4.90;99.90
34837;DHT22;21053;50.848;4.652;2022-12-07T04:33:57;4.70;99.90
34837;DHT22;21053;50.848;4.652;2022-12-07T04:36:23;4.80;99.90
34837;DHT22;21053;50.848;4.652;2022-12-07T04:38:49;4.60;99.90
34837;DHT22;21053;50.848;4.652;2022-12-07T04:41:14;4.60;99.90
34837;DHT22;21053;50.848;4.652;2022-12-07T04:43:40;4.50;99.90
34837;DHT22;21053;50.848;4.652;2022-12-07T04:46:06;4.50;99.90
34837;DHT22;21053;50.848;4.652;2022-12-07T04:48:31;4.50;99.90
34837;DHT22;21053;50.848;4.652;2022-12-07T04:50:57;4.50;99.90
34837;DHT22;21053;50.848;4.652;2022-12-07T04:53:23;4.50;99.90
34837;DHT22;21053;50.848;4.652;2022-12-07T04:55:49;4.40;99.90
34837;DHT22;21053;50.848;4.652;2022-12-07T04:58:16;4.50;99.90
34837;DHT22;21053;50.848;4.652;2022-12-07T05:00:42;4.60;99.90
34837;DHT22;21053;50.848;4.652;2022-12-07T05:03:07;4.70;99.90
34837;DHT22;21053;50.848;4.652;2022-12-07T05:05:34;4.50;99.90
34837;DHT22;21053;50.848;4.652;2022-12-07T05:08:00;4.50;99.90
34837;DHT22;21053;50.848;4.652;2022-12-07T05:10:26;4.30;99.90
34837;DHT22;21053;50.848;4.652;2022-12-07T05:12:52;4.30;99.90
34837;DHT22;21053;50.848;4.652;2022-12-07T05:15:18;4.20;99.90
34837;DHT22;21053;50.848;4.652;2022-12-07T05:17:43;4.10;99.90
34837;DHT22;21053;50.848;4.652;2022-12-07T05:20:09;4.10;99.90
34837;DHT22;21053;50.848;4.652;2022-12-07T05:22:35;4.00;99.90
34837;DHT22;21053;50.848;4.652;2022-12-07T05:25:01;3.90;99.90
34837;DHT22;21053;50.848;4.652;2022-12-07T05:27:27;4.00;99.90
34837;DHT22;21053;50.848;4.652;2022-12-07T05:29:55;4.00;99.90
34837;DHT22;21053;50.848;4.652;2022-12-07T05:32:21;4.10;99.90
34837;DHT22;21053;50.848;4.652;2022-12-07T05:34:47;4.10;99.90
34837;DHT22;21053;50.848;4.652;2022-12-07T05:37:12;4.10;99.90
34837;DHT22;21053;50.848;4.652;2022-12-07T05:39:38;4.10;99.90
34837;DHT22;21053;50.848;4.652;2022-12-07T05:42:06;4.30;99.90
34837;DHT22;21053;50.848;4.652;2022-12-07T05:44:40;4.30;99.90
34837;DHT22;21053;50.848;4.652;2022-12-07T05:47:06;4.20;99.90
34837;DHT22;21053;50.848;4.652;2022-12-07T05:49:32;4.20;99.90
34837;DHT22;21053;50.848;4.652;2022-12-07T05:51:58;4.30;99.90
34837;DHT22;21053;50.848;4.652;2022-12-07T05:54:24;4.40;99.90
34837;DHT22;21053;50.848;4.652;2022-12-07T05:56:50;4.40;99.90
34837;DHT22;21053;50.848;4.652;2022-12-07T05:59:16;4.30;99.90
34837;DHT22;21053;50.848;4.652;2022-12-07T06:02:12;4.40;99.90
34837;DHT22;21053;50.848;4.652;2022-12-07T06:04:40;4.50;99.90
34837;DHT22;21053;50.848;4.652;2022-12-07T06:07:08;4.50;99.90
34837;DHT22;21053;50.848;4.652;2022-12-07T06:09:37;4.40;99.90
34837;DHT22;21053;50.848;4.652;2022-12-07T06:12:03;4.30;99.90
34837;DHT22;21053;50.848;4.652;2022-12-07T06:14:48;4.30;99.90
34837;DHT22;21053;50.848;4.652;2022-12-07T06:17:14;4.50;99.90
34837;DHT22;21053;50.848;4.652;2022-12-07T06:19:41;4.40;99.90
34837;DHT22;21053;50.848;4.652;2022-12-07T06:22:10;4.30;99.90
34837;DHT22;21053;50.848;4.652;2022-12-07T06:24:38;4.30;99.90
34837;DHT22;21053;50.848;4.652;2022-12-07T06:27:04;4.30;99.90
34837;DHT22;21053;50.848;4.652;2022-12-07T06:29:30;4.30;99.90
34837;DHT22;21053;50.848;4.652;2022-12-07T06:31:56;4.40;99.90
34837;DHT22;21053;50.848;4.652;2022-12-07T06:34:23;4.40;99.90
34837;DHT22;21053;50.848;4.652;2022-12-07T06:36:49;4.30;99.90
34837;DHT22;21053;50.848;4.652;2022-12-07T06:39:18;4.30;99.90
34837;DHT22;21053;50.848;4.652;2022-12-07T06:41:44;4.30;99.90
34837;DHT22;21053;50.848;4.652;2022-12-07T06:44:10;4.40;99.90
34837;DHT22;21053;50.848;4.652;2022-12-07T06:46:35;4.40;99.90
34837;DHT22;21053;50.848;4.652;2022-12-07T06:49:02;4.40;99.90
34837;DHT22;21053;50.848;4.652;2022-12-07T06:51:28;4.30;99.90
34837;DHT22;21053;50.848;4.652;2022-12-07T06:53:56;4.40;99.90
34837;DHT22;21053;50.848;4.652;2022-12-07T06:56:22;4.40;99.90
34837;DHT22;21053;50.848;4.652;2022-12-07T06:58:49;4.60;99.90
34837;DHT22;21053;50.848;4.652;2022-12-07T07:01:18;4.60;99.90
34837;DHT22;21053;50.848;4.652;2022-12-07T07:03:44;4.50;99.90
34837;DHT22;21053;50.848;4.652;2022-12-07T07:06:11;5.40;99.90
34837;DHT22;21053;50.848;4.652;2022-12-07T07:08:40;4.60;99.90
34837;DHT22;21053;50.848;4.652;2022-12-07T07:11:07;4.30;99.90
34837;DHT22;21053;50.848;4.652;2022-12-07T07:13:33;4.30;99.90
34837;DHT22;21053;50.848;4.652;2022-12-07T07:15:59;4.40;99.90
34837;DHT22;21053;50.848;4.652;2022-12-07T07:18:25;4.40;99.90
34837;DHT22;21053;50.848;4.652;2022-12-07T07:20:52;4.50;99.90
34837;DHT22;21053;50.848;4.652;2022-12-07T07:23:19;4.40;99.90
34837;DHT22;21053;50.848;4.652;2022-12-07T07:25:45;4.40;99.90
34837;DHT22;21053;50.848;4.652;2022-12-07T07:28:11;4.30;99.90
34837;DHT22;21053;50.848;4.652;2022-12-07T07:30:43;4.30;99.90
34837;DHT22;21053;50.848;4.652;2022-12-07T07:33:10;4.30;99.90
34837;DHT22;21053;50.848;4.652;2022-12-07T07:35:37;4.50;99.90
34837;DHT22;21053;50.848;4.652;2022-12-07T07:38:06;4.60;99.90
34837;DHT22;21053;50.848;4.652;2022-12-07T07:40:33;4.80;99.90
34837;DHT22;21053;50.848;4.652;2022-12-07T07:42:59;4.80;99.90
34837;DHT22;21053;50.848;4.652;2022-12-07T07:45:26;4.80;99.90
34837;DHT22;21053;50.848;4.652;2022-12-07T07:47:52;4.80;99.90
34837;DHT22;21053;50.848;4.652;2022-12-07T07:50:20;4.70;99.90
34837;DHT22;21053;50.848;4.652;2022-12-07T07:52:47;4.40;99.90
34837;DHT22;21053;50.848;4.652;2022-12-07T07:55:14;4.50;99.90
34837;DHT22;21053;50.848;4.652;2022-12-07T07:57:42;4.60;99.90
34837;DHT22;21053;50.848;4.652;2022-12-07T08:00:12;4.80;99.90
34837;DHT22;21053;50.848;4.652;2022-12-07T08:02:39;4.90;99.90
34837;DHT22;21053;50.848;4.652;2022-12-07T08:05:05;4.80;99.90
34837;DHT22;21053;50.848;4.652;2022-12-07T08:07:32;4.90;99.90
34837;DHT22;21053;50.848;4.652;2022-12-07T08:10:00;4.90;99.90
34837;DHT22;21053;50.848;4.652;2022-12-07T08:12:26;5.00;99.90
34837;DHT22;21053;50.848;4.652;2022-12-07T08:14:53;4.80;99.90
34837;DHT22;21053;50.848;4.652;2022-12-07T08:17:18;4.90;99.90
34837;DHT22;21053;50.848;4.652;2022-12-07T08:19:46;4.90;99.90
34837;DHT22;21053;50.848;4.652;2022-12-07T08:22:11;4.80;99.90
34837;DHT22;21053;50.848;4.652;2022-12-07T08:24:38;4.70;99.90
34837;DHT22;21053;50.848;4.652;2022-12-07T08:27:07;4.60;99.90
34837;DHT22;21053;50.848;4.652;2022-12-07T08:29:34;4.60;99.90
34837;DHT22;21053;50.848;4.652;2022-12-07T08:32:00;4.60;99.90
34837;DHT22;21053;50.848;4.652;2022-12-07T08:34:26;4.60;99.90
34837;DHT22;21053;50.848;4.652;2022-12-07T08:36:53;4.60;99.90
34837;DHT22;21053;50.848;4.652;2022-12-07T08:39:22;4.60;99.90
34837;DHT22;21053;50.848;4.652;2022-12-07T08:41:48;4.70;99.90
34837;DHT22;21053;50.848;4.652;2022-12-07T08:44:14;4.80;99.90
34837;DHT22;21053;50.848;4.652;2022-12-07T08:46:47;4.70;99.90
34837;DHT22;21053;50.848;4.652;2022-12-07T08:49:43;4.60;99.90
34837;DHT22;21053;50.848;4.652;2022-12-07T08:52:11;4.60;99.90
34837;DHT22;21053;50.848;4.652;2022-12-07T08:54:38;4.70;99.90
34837;DHT22;21053;50.848;4.652;2022-12-07T08:57:06;4.80;99.90
34837;DHT22;21053;50.848;4.652;2022-12-07T08:59:35;5.00;99.90
34837;DHT22;21053;50.848;4.652;2022-12-07T09:02:01;5.30;99.90
34837;DHT22;21053;50.848;4.652;2022-12-07T09:04:27;5.60;99.90
34837;DHT22;21053;50.848;4.652;2022-12-07T09:06:54;5.90;99.90
34837;DHT22;21053;50.848;4.652;2022-12-07T09:09:22;6.20;99.90
34837;DHT22;21053;50.848;4.652;2022-12-07T09:11:48;6.40;99.90
34837;DHT22;21053;50.848;4.652;2022-12-07T09:14:13;6.30;99.90
34837;DHT22;21053;50.848;4.652;2022-12-07T09:16:40;6.40;99.90
34837;DHT22;21053;50.848;4.652;2022-12-07T09:19:07;6.20;99.90
34837;DHT22;21053;50.848;4.652;2022-12-07T09:21:34;6.30;99.90
34837;DHT22;21053;50.848;4.652;2022-12-07T09:24:03;6.50;99.90
34837;DHT22;21053;50.848;4.652;2022-12-07T09:26:32;6.50;99.90
34837;DHT22;21053;50.848;4.652;2022-12-07T09:29:02;6.70;99.90
34837;DHT22;21053;50.848;4.652;2022-12-07T09:31:30;7.00;99.90
34837;DHT22;21053;50.848;4.652;2022-12-07T09:33:58;8.80;99.90
34837;DHT22;21053;50.848;4.652;2022-12-07T09:36:26;7.10;99.90
34837;DHT22;21053;50.848;4.652;2022-12-07T09:38:55;7.00;99.90
34837;DHT22;21053;50.848;4.652;2022-12-07T09:41:24;7.00;99.90
34837;DHT22;21053;50.848;4.652;2022-12-07T09:44:02;7.10;99.90
34837;DHT22;21053;50.848;4.652;2022-12-07T09:46:40;7.10;99.90
34837;DHT22;21053;50.848;4.652;2022-12-07T09:49:14;7.20;99.90
34837;DHT22;21053;50.848;4.652;2022-12-07T09:51:42;7.20;99.90
34837;DHT22;21053;50.848;4.652;2022-12-07T09:54:12;7.20;99.90
34837;DHT22;21053;50.848;4.652;2022-12-07T09:56:42;7.30;99.90
34837;DHT22;21053;50.848;4.652;2022-12-07T09:59:24;7.30;99.90
34837;DHT22;21053;50.848;4.652;2022-12-07T10:01:53;7.50;99.90
34837;DHT22;21053;50.848;4.652;2022-12-07T10:04:25;7.50;99.90
34837;DHT22;21053;50.848;4.652;2022-12-07T10:06:57;7.80;99.90
34837;DHT22;21053;50.848;4.652;2022-12-07T10:09:25;7.80;99.90
34837;DHT22;21053;50.848;4.652;2022-12-07T10:14:33;8.00;99.90
34837;DHT22;21053;50.848;4.652;2022-12-07T10:20:25;8.20;99.90
34837;DHT22;21053;50.848;4.652;2022-12-07T10:25:24;8.60;99.90
34837;DHT22;21053;50.848;4.652;2022-12-07T10:28:14;8.80;99.90
34837;DHT22;21053;50.848;4.652;2022-12-07T10:31:05;8.90;99.90
34837;DHT22;21053;50.848;4.652;2022-12-07T10:34:00;9.00;99.90
34837;DHT22;21053;50.848;4.652;2022-12-07T10:39:22;9.00;99.90
34837;DHT22;21053;50.848;4.652;2022-12-07T10:44:25;8.90;99.90
34837;DHT22;21053;50.848;4.652;2022-12-07T10:47:14;9.10;99.90
34837;DHT22;21053;50.848;4.652;2022-12-07T10:50:02;9.10;99.90
34837;DHT22;21053;50.848;4.652;2022-12-07T10:55:45;9.30;99.90
34837;DHT22;21053;50.848;4.652;2022-12-07T11:00:54;9.70;99.90
34837;DHT22;21053;50.848;4.652;2022-12-07T11:06:30;9.50;99.90
34837;DHT22;21053;50.848;4.652;2022-12-07T11:09:16;9.40;99.90
34837;DHT22;21053;50.848;4.652;2022-12-07T11:11:50;9.10;99.90
34837;DHT22;21053;50.848;4.652;2022-12-07T11:14:48;9.00;99.90
34837;DHT22;21053;50.848;4.652;2022-12-07T11:31:38;9.50;99.90
34837;DHT22;21053;50.848;4.652;2022-12-07T11:36:54;11.40;99.90
34837;DHT22;21053;50.848;4.652;2022-12-07T11:39:36;11.50;99.90
34837;DHT22;21053;50.848;4.652;2022-12-07T11:42:14;11.50;99.90
34837;DHT22;21053;50.848;4.652;2022-12-07T11:47:57;11.00;99.90
34837;DHT22;21053;50.848;4.652;2022-12-07T11:53:18;10.80;99.90
34837;DHT22;21053;50.848;4.652;2022-12-07T11:55:57;10.70;99.90
34837;DHT22;21053;50.848;4.652;2022-12-07T12:06:25;13.10;99.90
34837;DHT22;21053;50.848;4.652;2022-12-07T12:12:06;12.70;99.90
34837;DHT22;21053;50.848;4.652;2022-12-07T12:20:23;14.30;98.40
34837;DHT22;21053;50.848;4.652;2022-12-07T12:25:44;14.30;97.00
34837;DHT22;21053;50.848;4.652;2022-12-07T12:33:52;12.70;98.70
34837;DHT22;21053;50.848;4.652;2022-12-07T12:47:01;10.90;99.90
34837;DHT22;21053;50.848;4.652;2022-12-07T12:49:54;10.90;99.90
34837;DHT22;21053;50.848;4.652;2022-12-07T12:52:46;10.50;99.90
34837;DHT22;21053;50.848;4.652;2022-12-07T12:55:19;11.70;99.90
34837;DHT22;21053;50.848;4.652;2022-12-07T12:57:53;13.60;99.90
34837;DHT22;21053;50.848;4.652;2022-12-07T13:00:33;14.80;98.00
34837;DHT22;21053;50.848;4.652;2022-12-07T13:03:02;15.90;94.50
34837;DHT22;21053;50.848;4.652;2022-12-07T13:05:31;16.30;93.70
34837;DHT22;21053;50.848;4.652;2022-12-07T13:08:17;17.00;93.10
34837;DHT22;21053;50.848;4.652;2022-12-07T13:10:48;16.80;91.50
34837;DHT22;21053;50.848;4.652;2022-12-07T13:21:01;16.50;90.50
34837;DHT22;21053;50.848;4.652;2022-12-07T13:29:14;13.00;94.90
34837;DHT22;21053;50.848;4.652;2022-12-07T13:31:52;11.90;96.90
34837;DHT22;21053;50.848;4.652;2022-12-07T13:34:39;11.20;98.80
34837;DHT22;21053;50.848;4.652;2022-12-07T13:37:36;11.00;99.40
34837;DHT22;21053;50.848;4.652;2022-12-07T13:40:19;10.60;99.90
34837;DHT22;21053;50.848;4.652;2022-12-07T13:42:48;10.50;99.90
34837;DHT22;21053;50.848;4.652;2022-12-07T13:45:25;10.40;99.90
34837;DHT22;21053;50.848;4.652;2022-12-07T13:48:21;10.00;99.90
34837;DHT22;21053;50.848;4.652;2022-12-07T13:50:57;9.80;99.90
34837;DHT22;21053;50.848;4.652;2022-12-07T13:53:26;9.80;99.90
34837;DHT22;21053;50.848;4.652;2022-12-07T13:55:59;9.80;99.90
34837;DHT22;21053;50.848;4.652;2022-12-07T13:58:33;9.90;99.90
34837;DHT22;21053;50.848;4.652;2022-12-07T14:01:01;9.80;99.90
34837;DHT22;21053;50.848;4.652;2022-12-07T14:03:34;9.70;99.90
34837;DHT22;21053;50.848;4.652;2022-12-07T14:06:25;9.70;99.90
34837;DHT22;21053;50.848;4.652;2022-12-07T14:09:21;9.60;99.90
34837;DHT22;21053;50.848;4.652;2022-12-07T14:11:50;9.60;99.90
34837;DHT22;21053;50.848;4.652;2022-12-07T14:17:00;9.50;99.90
34837;DHT22;21053;50.848;4.652;2022-12-07T14:19:58;9.30;99.90
34837;DHT22;21053;50.848;4.652;2022-12-07T14:22:36;9.30;99.90
34837;DHT22;21053;50.848;4.652;2022-12-07T14:25:25;9.20;99.90
34837;DHT22;21053;50.848;4.652;2022-12-07T14:27:59;9.00;99.90
34837;DHT22;21053;50.848;4.652;2022-12-07T14:30:34;9.20;99.90
34837;DHT22;21053;50.848;4.652;2022-12-07T14:33:04;8.70;99.90
34837;DHT22;21053;50.848;4.652;2022-12-07T14:35:34;8.70;99.90
34837;DHT22;21053;50.848;4.652;2022-12-07T14:38:03;8.70;99.90
34837;DHT22;21053;50.848;4.652;2022-12-07T14:40:32;8.60;99.90
34837;DHT22;21053;50.848;4.652;2022-12-07T14:43:02;10.40;99.90
34837;DHT22;21053;50.848;4.652;2022-12-07T14:45:29;8.50;99.90
34837;DHT22;21053;50.848;4.652;2022-12-07T14:47:57;8.10;99.90
34837;DHT22;21053;50.848;4.652;2022-12-07T14:50:25;8.10;99.90
34837;DHT22;21053;50.848;4.652;2022-12-07T14:53:10;8.30;99.90
34837;DHT22;21053;50.848;4.652;2022-12-07T14:55:39;8.10;99.90
34837;DHT22;21053;50.848;4.652;2022-12-07T14:58:15;8.10;99.90
34837;DHT22;21053;50.848;4.652;2022-12-07T15:00:44;8.10;99.90
34837;DHT22;21053;50.848;4.652;2022-12-07T15:03:13;7.90;99.90
34837;DHT22;21053;50.848;4.652;2022-12-07T15:05:42;7.80;99.90
34837;DHT22;21053;50.848;4.652;2022-12-07T15:10:49;7.80;99.90
34837;DHT22;21053;50.848;4.652;2022-12-07T15:13:16;7.80;99.90
34837;DHT22;21053;50.848;4.652;2022-12-07T15:16:00;7.80;99.90
34837;DHT22;21053;50.848;4.652;2022-12-07T15:18:29;7.80;99.90
34837;DHT22;21053;50.848;4.652;2022-12-07T15:20:58;7.70;99.90
34837;DHT22;21053;50.848;4.652;2022-12-07T15:23:25;7.80;99.90
34837;DHT22;21053;50.848;4.652;2022-12-07T15:25:54;7.90;99.90
34837;DHT22;21053;50.848;4.652;2022-12-07T15:28:23;7.60;99.90
34837;DHT22;21053;50.848;4.652;2022-12-07T15:30:52;7.50;99.90
34837;DHT22;21053;50.848;4.652;2022-12-07T15:33:18;7.40;99.90
34837;DHT22;21053;50.848;4.652;2022-12-07T15:35:45;7.30;99.90
34837;DHT22;21053;50.848;4.652;2022-12-07T15:38:12;7.30;99.90
34837;DHT22;21053;50.848;4.652;2022-12-07T15:40:46;7.30;99.90
34837;DHT22;21053;50.848;4.652;2022-12-07T15:43:12;7.30;99.90
34837;DHT22;21053;50.848;4.652;2022-12-07T15:45:59;7.30;99.90
34837;DHT22;21053;50.848;4.652;2022-12-07T15:48:28;7.30;99.90
34837;DHT22;21053;50.848;4.652;2022-12-07T15:51:10;7.40;99.90
34837;DHT22;21053;50.848;4.652;2022-12-07T15:53:40;7.40;99.90
34837;DHT22;21053;50.848;4.652;2022-12-07T15:56:12;7.40;99.90
34837;DHT22;21053;50.848;4.652;2022-12-07T15:58:39;7.40;99.90
34837;DHT22;21053;50.848;4.652;2022-12-07T16:01:16;7.40;99.90
34837;DHT22;21053;50.848;4.652;2022-12-07T16:03:46;7.40;99.90
34837;DHT22;21053;50.848;4.652;2022-12-07T16:06:16;7.40;99.90
34837;DHT22;21053;50.848;4.652;2022-12-07T16:08:46;7.40;99.90
34837;DHT22;21053;50.848;4.652;2022-12-07T16:11:13;7.50;99.90
34837;DHT22;21053;50.848;4.652;2022-12-07T16:13:42;7.50;99.90
34837;DHT22;21053;50.848;4.652;2022-12-07T16:16:14;7.50;99.90
34837;DHT22;21053;50.848;4.652;2022-12-07T16:18:46;7.50;99.90
34837;DHT22;21053;50.848;4.652;2022-12-07T16:21:13;7.60;99.90
34837;DHT22;21053;50.848;4.652;2022-12-07T16:23:40;8.60;99.90
34837;DHT22;21053;50.848;4.652;2022-12-07T16:26:17;7.60;99.90
34837;DHT22;21053;50.848;4.652;2022-12-07T16:28:49;7.50;99.90
34837;DHT22;21053;50.848;4.652;2022-12-07T16:31:18;7.50;99.90
34837;DHT22;21053;50.848;4.652;2022-12-07T16:33:45;7.50;99.90
34837;DHT22;21053;50.848;4.652;2022-12-07T16:36:13;7.50;99.90
34837;DHT22;21053;50.848;4.652;2022-12-07T16:38:41;7.50;99.90
34837;DHT22;21053;50.848;4.652;2022-12-07T16:41:11;7.50;99.90
34837;DHT22;21053;50.848;4.652;2022-12-07T16:43:37;7.50;99.90
34837;DHT22;21053;50.848;4.652;2022-12-07T16:46:04;7.40;99.90
34837;DHT22;21053;50.848;4.652;2022-12-07T16:48:31;7.40;99.90
34837;DHT22;21053;50.848;4.652;2022-12-07T16:51:03;7.40;99.90
34837;DHT22;21053;50.848;4.652;2022-12-07T16:53:32;7.90;99.90
34837;DHT22;21053;50.848;4.652;2022-12-07T16:55:58;7.50;99.90
34837;DHT22;21053;50.848;4.652;2022-12-07T16:58:26;7.40;99.90
34837;DHT22;21053;50.848;4.652;2022-12-07T17:00:55;7.40;99.90
34837;DHT22;21053;50.848;4.652;2022-12-07T17:03:23;7.30;99.90
34837;DHT22;21053;50.848;4.652;2022-12-07T17:05:51;7.30;99.90
34837;DHT22;21053;50.848;4.652;2022-12-07T17:08:23;7.30;99.90
34837;DHT22;21053;50.848;4.652;2022-12-07T17:10:49;7.30;99.90
34837;DHT22;21053;50.848;4.652;2022-12-07T17:13:18;7.20;99.90
34837;DHT22;21053;50.848;4.652;2022-12-07T17:16:05;7.40;99.90
34837;DHT22;21053;50.848;4.652;2022-12-07T17:18:35;7.50;99.90
34837;DHT22;21053;50.848;4.652;2022-12-07T17:21:07;7.50;99.90
34837;DHT22;21053;50.848;4.652;2022-12-07T17:23:35;7.50;99.90
34837;DHT22;21053;50.848;4.652;2022-12-07T17:26:07;7.70;99.90
34837;DHT22;21053;50.848;4.652;2022-12-07T17:28:36;7.40;99.90
34837;DHT22;21053;50.848;4.652;2022-12-07T17:31:06;7.40;99.90
34837;DHT22;21053;50.848;4.652;2022-12-07T17:33:35;7.40;99.90
34837;DHT22;21053;50.848;4.652;2022-12-07T17:36:14;7.40;99.90
34837;DHT22;21053;50.848;4.652;2022-12-07T17:38:42;7.30;99.90
34837;DHT22;21053;50.848;4.652;2022-12-07T17:41:11;7.40;99.90
34837;DHT22;21053;50.848;4.652;2022-12-07T17:43:37;7.40;99.90
34837;DHT22;21053;50.848;4.652;2022-12-07T17:46:09;8.00;99.90
34837;DHT22;21053;50.848;4.652;2022-12-07T17:48:35;7.10;99.90
34837;DHT22;21053;50.848;4.652;2022-12-07T17:51:04;7.20;99.90
34837;DHT22;21053;50.848;4.652;2022-12-07T17:53:50;7.30;99.90
34837;DHT22;21053;50.848;4.652;2022-12-07T17:56:19;7.80;99.90
34837;DHT22;21053;50.848;4.652;2022-12-07T17:58:47;7.20;99.90
34837;DHT22;21053;50.848;4.652;2022-12-07T18:01:16;7.20;99.90
34837;DHT22;21053;50.848;4.652;2022-12-07T18:03:45;7.20;99.90
34837;DHT22;21053;50.848;4.652;2022-12-07T18:06:12;7.20;99.90
34837;DHT22;21053;50.848;4.652;2022-12-07T18:08:37;7.20;99.90